Search for airport 
image banner adimage banner adimage banner ad
image banner ad

PN32 - Indiana Rgnl Medical Center

Located in Indiana, United States

ICAO - PN32, IATA -

Data provided by Airmate  

General information

Coordinates: N40°36'24" W79°9'22"
Elevation is 1285 feet MSL.
Magnetic variation is -09° East
View others Airports in Pennsylvania

Operational data

Special qualification required
Current time UTC:
Current local time:
METAR: KIDI 131935Z AUTO 14005KT 10SM CLR 28/18 A2991 RMK A01
View NOTAMs / SUP AIP / TFR affecting this airport [VIEW]
Communications frequencies: [VIEW]

Runways:

Airport contact information

Address: Indiana United States

Satellite view of PN32